Time;durP1;ratioP1;P1;durP2;ratioP2;P2;SDS_P1;SDS_P2;PMS_P1;PMS_P2;Temp;Humidity;BMP_temperature;BMP_pressure;BME280_temperature;BME280_humidity;BME280_pressure;Samples;Min_cycle;Max_cycle;Signal;HPM_P1;HPM_P2
2022/12/10 00:02:24;;;;;;;69.72;9.07;;;18.40;98.10;;;;;;5030422;28;20040;-67
2022/12/10 00:05:28;;;;;;;72.47;9.70;;;18.40;98.10;;;;;;5030159;28;20048;-67
2022/12/10 00:08:33;;;;;;;59.30;9.68;;;18.40;98.20;;;;;;5033765;28;20437;-67
2022/12/10 00:11:38;;;;;;;72.50;9.23;;;18.40;98.10;;;;;;5033906;28;20397;-66
2022/12/10 00:14:42;;;;;;;54.38;7.28;;;18.40;98.10;;;;;;5033571;28;20045;-66
2022/12/10 00:17:45;;;;;;;74.68;9.88;;;18.40;98.20;;;;;;5033577;28;20527;-67
2022/12/10 00:20:49;;;;;;;67.07;10.10;;;18.40;98.30;;;;;;5033876;28;20413;-67
2022/12/10 00:23:54;;;;;;;71.25;9.95;;;18.40;98.20;;;;;;5033525;28;20429;-67
2022/12/10 00:26:58;;;;;;;72.10;10.77;;;18.40;98.10;;;;;;5033427;28;20043;-68
2022/12/10 00:30:02;;;;;;;87.35;9.43;;;18.40;98.00;;;;;;5033665;28;20048;-67
2022/12/10 00:33:06;;;;;;;100.10;10.90;;;18.40;97.90;;;;;;5044456;28;20044;-67
2022/12/10 00:36:13;;;;;;;53.65;9.02;;;18.40;97.80;;;;;;5033290;28;20049;-67
2022/12/10 00:39:19;;;;;;;60.30;9.40;;;18.40;97.80;;;;;;5033206;28;20052;-67
2022/12/10 00:42:23;;;;;;;90.63;10.80;;;18.40;97.80;;;;;;5032996;28;20044;-67
2022/12/10 00:45:27;;;;;;;64.82;8.18;;;18.40;97.80;;;;;;5033251;28;20696;-67
2022/12/10 00:48:31;;;;;;;51.72;9.32;;;18.40;97.50;;;;;;5033118;28;20081;-67
2022/12/10 00:51:36;;;;;;;80.60;10.23;;;18.40;97.50;;;;;;5032906;28;20504;-67
2022/12/10 00:54:40;;;;;;;84.68;11.18;;;18.40;97.50;;;;;;5032681;28;20049;-66
2022/12/10 00:57:44;;;;;;;63.40;9.35;;;18.40;97.30;;;;;;5031955;28;20056;-67
2022/12/10 01:00:49;;;;;;;74.78;9.95;;;18.40;97.30;;;;;;5033136;28;20048;-67
2022/12/10 01:03:56;;;;;;;52.95;8.82;;;18.40;97.40;;;;;;5032817;28;20587;-66
2022/12/10 01:07:00;;;;;;;46.30;7.90;;;18.40;97.40;;;;;;5032997;28;20381;-67
2022/12/10 01:10:04;;;;;;;58.67;9.07;;;18.40;97.50;;;;;;5032812;28;20036;-67
2022/12/10 01:13:08;;;;;;;63.78;9.05;;;18.30;97.50;;;;;;5032050;28;20068;-67
2022/12/10 01:16:14;;;;;;;87.25;10.60;;;18.30;97.60;;;;;;5032690;28;20049;-65
2022/12/10 01:19:18;;;;;;;73.93;9.13;;;18.30;97.70;;;;;;5032177;28;20052;-67
2022/12/10 01:22:22;;;;;;;106.65;13.27;;;18.30;97.70;;;;;;5032961;28;20048;-67
2022/12/10 01:25:26;;;;;;;86.15;12.40;;;18.30;97.80;;;;;;5043637;28;20048;-67
2022/12/10 01:28:32;;;;;;;86.47;10.52;;;18.30;97.90;;;;;;5032575;28;20044;-67
2022/12/10 01:31:36;;;;;;;99.20;10.90;;;18.30;98.10;;;;;;5032427;28;20040;-67
2022/12/10 01:34:42;;;;;;;87.40;10.52;;;18.30;98.20;;;;;;5032153;28;20044;-67
2022/12/10 01:37:46;;;;;;;86.00;11.98;;;18.30;98.30;;;;;;5042505;28;20044;-67
2022/12/10 01:40:50;;;;;;;87.30;11.07;;;18.30;98.40;;;;;;5032482;28;20060;-67
2022/12/10 01:44:01;;;;;;;79.95;10.52;;;18.30;98.40;;;;;;5032024;28;20044;-67
2022/12/10 01:47:06;;;;;;;97.32;12.52;;;18.30;98.40;;;;;;5042673;28;20040;-67
2022/12/10 01:50:10;;;;;;;96.53;12.65;;;18.30;98.50;;;;;;5032115;28;20064;-67
2022/12/10 01:53:15;;;;;;;97.25;10.77;;;18.30;98.50;;;;;;5031852;28;20507;-66
2022/12/10 01:56:20;;;;;;;79.30;9.98;;;18.30;98.50;;;;;;5032223;28;20079;-67
2022/12/10 01:59:25;;;;;;;81.38;10.13;;;18.30;98.40;;;;;;5030883;28;20519;-67
2022/12/10 02:02:40;;;;;;;73.32;8.95;;;18.30;98.40;;;;;;5042611;28;20037;-67
2022/12/10 02:05:53;;;;;;;74.97;9.45;;;18.30;98.40;;;;;;5031841;28;20049;-67
2022/12/10 02:09:07;;;;;;;56.40;7.85;;;18.40;98.40;;;;;;5030791;28;20406;-67
2022/12/10 02:12:44;;;;;;;68.30;7.72;;;18.30;98.30;;;;;;5042239;28;20041;-67
2022/12/10 02:15:55;;;;;;;42.58;6.20;;;18.30;98.30;;;;;;5017791;28;20044;-67
2022/12/10 02:19:46;;;;;;;68.40;8.47;;;18.30;98.30;;;;;;5031507;28;20405;-67
2022/12/10 02:22:54;;;;;;;54.40;7.90;;;18.30;98.30;;;;;;5010750;28;20057;-67
2022/12/10 02:26:29;;;;;;;49.08;7.72;;;18.30;98.40;;;;;;5031580;28;20052;-67
2022/12/10 02:29:35;;;;;;;63.47;8.45;;;18.30;98.30;;;;;;5041700;28;20048;-67
2022/12/10 02:32:42;;;;;;;43.28;6.50;;;18.30;98.30;;;;;;5030368;28;20496;-66
2022/12/10 02:35:50;;;;;;;74.43;9.15;;;18.30;98.30;;;;;;5030444;28;20056;-66
2022/12/10 02:38:57;;;;;;;44.85;6.90;;;18.30;98.20;;;;;;5030276;28;20052;-66
2022/12/10 02:42:05;;;;;;;44.33;7.88;;;18.30;98.20;;;;;;5042024;28;20044;-66
2022/12/10 02:45:10;;;;;;;46.00;6.65;;;18.30;98.30;;;;;;5030431;28;20048;-66
2022/12/10 02:48:15;;;;;;;51.50;8.38;;;18.30;98.30;;;;;;5031323;28;20040;-66
2022/12/10 02:51:21;;;;;;;51.05;7.63;;;18.30;98.30;;;;;;5030131;28;20040;-66
2022/12/10 02:54:35;;;;;;;66.03;6.60;;;18.20;98.40;;;;;;5031188;28;20405;-66
2022/12/10 02:58:03;;;;;;;45.55;6.07;;;18.20;98.30;;;;;;5041190;28;20067;-66
2022/12/10 03:01:21;;;;;;;48.60;6.65;;;18.20;98.30;;;;;;5030222;28;20055;-66
2022/12/10 03:04:49;;;;;;;45.88;6.22;;;18.20;98.40;;;;;;5031285;28;20057;-65
2022/12/10 03:08:05;;;;;;;42.33;6.35;;;18.20;98.50;;;;;;5030823;28;20044;-66
2022/12/10 03:11:18;;;;;;;69.00;8.45;;;18.20;98.70;;;;;;5030759;28;20040;-66
2022/12/10 03:14:28;;;;;;;56.08;8.38;;;18.20;98.80;;;;;;5030956;28;20057;-66
2022/12/10 03:17:33;;;;;;;58.95;8.38;;;18.20;98.90;;;;;;5030914;28;20045;-67
2022/12/10 03:20:41;;;;;;;48.30;7.40;;;18.20;98.90;;;;;;5031013;28;20056;-67
2022/12/10 03:23:47;;;;;;;70.80;8.43;;;18.20;98.70;;;;;;5030798;28;20045;-67
2022/12/10 03:26:52;;;;;;;56.47;7.57;;;18.20;98.70;;;;;;5030620;28;20048;-66
2022/12/10 03:29:58;;;;;;;63.10;8.05;;;18.20;98.50;;;;;;5030963;28;20067;-66
2022/12/10 03:33:03;;;;;;;61.22;9.80;;;18.20;98.40;;;;;;5030793;28;20040;-66
2022/12/10 03:36:08;;;;;;;75.20;9.35;;;18.20;98.30;;;;;;5030581;28;20487;-66
2022/12/10 03:39:13;;;;;;;63.42;7.95;;;18.20;98.10;;;;;;5030705;28;20073;-66
2022/12/10 03:42:17;;;;;;;62.78;8.38;;;18.20;97.90;;;;;;5032774;28;20041;-66
2022/12/10 03:45:21;;;;;;;63.10;7.82;;;18.20;97.60;;;;;;5034176;28;20048;-66
2022/12/10 03:48:25;;;;;;;59.60;7.30;;;18.30;97.30;;;;;;5033624;28;20036;-66
2022/12/10 03:51:29;;;;;;;40.70;6.72;;;18.30;97.20;;;;;;5034624;28;20053;-66
2022/12/10 03:54:32;;;;;;;56.78;8.75;;;18.30;97.40;;;;;;5034556;28;20056;-66
2022/12/10 03:57:36;;;;;;;49.67;8.82;;;18.20;97.60;;;;;;5034262;28;20044;-67
2022/12/10 04:00:41;;;;;;;45.63;7.15;;;18.20;97.90;;;;;;5034462;28;20494;-66
2022/12/10 04:03:45;;;;;;;41.65;7.18;;;18.10;98.00;;;;;;5034000;28;20048;-67
2022/12/10 04:06:49;;;;;;;55.83;6.75;;;18.10;98.20;;;;;;5033869;28;20049;-66
2022/12/10 04:09:53;;;;;;;63.35;8.45;;;18.00;98.40;;;;;;5034327;28;20041;-66
2022/12/10 04:16:26;;;;;;;63.28;9.18;;;17.90;98.60;;;;;;5033867;28;20089;-66
2022/12/10 04:19:29;;;;;;;71.53;9.98;;;17.90;98.70;;;;;;5033703;28;20060;-66
2022/12/10 04:29:24;;;;;;;67.07;7.28;;;17.70;98.80;;;;;;5033802;28;20040;-66
2022/12/10 04:32:29;;;;;;;44.17;7.30;;;17.70;98.90;;;;;;5033849;28;20389;-66
2022/12/10 04:35:33;;;;;;;56.92;8.23;;;17.70;99.00;;;;;;5033714;28;20500;-66
2022/12/10 04:38:37;;;;;;;56.03;8.55;;;17.70;98.80;;;;;;5033310;28;20499;-66
2022/12/10 04:41:43;;;;;;;68.68;7.97;;;17.80;98.60;;;;;;5033424;28;20044;-66
2022/12/10 04:44:47;;;;;;;74.28;9.25;;;17.80;98.50;;;;;;5033245;28;20068;-67
2022/12/10 04:47:51;;;;;;;71.28;8.43;;;17.80;98.50;;;;;;5033015;28;20045;-65
2022/12/10 04:50:55;;;;;;;74.15;9.13;;;17.90;98.20;;;;;;5033475;28;20064;-66
2022/12/10 04:53:59;;;;;;;74.13;9.90;;;17.90;98.10;;;;;;5032547;28;20056;-66
2022/12/10 04:57:03;;;;;;;66.72;9.40;;;17.90;98.20;;;;;;5033194;28;20040;-68
2022/12/10 05:00:08;;;;;;;44.83;7.38;;;17.90;98.30;;;;;;5033016;28;20078;-66
2022/12/10 05:03:12;;;;;;;76.55;8.93;;;17.90;98.30;;;;;;5033249;28;20488;-66
2022/12/10 05:06:17;;;;;;;59.42;9.48;;;17.90;98.30;;;;;;5033085;28;20389;-66
2022/12/10 05:09:22;;;;;;;69.75;8.88;;;17.80;98.50;;;;;;5032997;28;20040;-66
2022/12/10 05:12:27;;;;;;;58.53;8.95;;;17.80;98.50;;;;;;5032903;28;20048;-67
2022/12/10 05:15:31;;;;;;;54.00;8.55;;;17.70;98.70;;;;;;5031906;28;20036;-66
2022/12/10 05:18:36;;;;;;;54.38;9.05;;;17.70;98.70;;;;;;5032548;28;20500;-67
2022/12/10 05:25:02;;;;;;;73.78;8.00;;;17.60;98.90;;;;;;5032616;28;20060;-67
2022/12/10 05:28:06;;;;;;;71.78;9.73;;;17.50;99.30;;;;;;5032752;28;20048;-67
2022/12/10 05:31:19;;;;;;;73.68;9.88;;;17.50;99.30;;;;;;5032243;28;20045;-67
2022/12/10 05:34:23;;;;;;;73.95;10.20;;;17.40;99.40;;;;;;5032320;28;20037;-67
2022/12/10 05:37:31;;;;;;;73.53;9.38;;;17.40;99.40;;;;;;5032296;28;20052;-67
2022/12/10 05:40:36;;;;;;;62.63;9.32;;;17.40;99.70;;;;;;5032337;28;20048;-66
2022/12/10 05:43:40;;;;;;;55.55;9.73;;;17.40;99.70;;;;;;5031925;28;20044;-66
2022/12/10 05:46:44;;;;;;;66.03;9.65;;;17.40;99.70;;;;;;5032195;28;20037;-66
2022/12/10 05:49:48;;;;;;;55.45;9.18;;;17.40;99.80;;;;;;5032173;28;20516;-67
2022/12/10 05:52:52;;;;;;;67.65;10.52;;;17.40;99.80;;;;;;5031821;28;20045;-67
2022/12/10 05:56:03;;;;;;;69.80;9.98;;;17.30;99.90;;;;;;5032235;28;20052;-67
2022/12/10 05:59:07;;;;;;;58.95;9.40;;;17.30;99.90;;;;;;5031794;28;20056;-67
2022/12/10 06:02:12;;;;;;;67.85;11.45;;;17.30;99.90;;;;;;5031687;28;20056;-67
2022/12/10 06:05:16;;;;;;;74.22;9.57;;;17.20;99.90;;;;;;5031211;28;20094;-67
2022/12/10 06:08:20;;;;;;;62.83;9.93;;;17.20;99.90;;;;;;5031440;28;20052;-67
2022/12/10 06:11:26;;;;;;;88.13;9.65;;;17.20;99.90;;;;;;5031469;28;20040;-66
2022/12/10 06:14:30;;;;;;;67.75;8.55;;;17.30;99.90;;;;;;5031479;28;20401;-67
2022/12/10 06:17:36;;;;;;;58.00;8.48;;;17.40;99.90;;;;;;5031326;28;20040;-67
2022/12/10 06:20:40;;;;;;;38.17;8.07;;;17.40;99.90;;;;;;5031734;28;20056;-67
2022/12/10 06:23:45;;;;;;;53.97;8.40;;;17.40;99.90;;;;;;5031640;28;20048;-68
2022/12/10 06:26:49;;;;;;;63.53;10.00;;;17.50;99.90;;;;;;5031393;28;20044;-73
2022/12/10 06:29:53;;;;;;;56.30;8.40;;;17.50;99.90;;;;;;5031605;28;20417;-73
2022/12/10 06:32:57;;;;;;;78.30;9.55;;;17.50;99.90;;;;;;5030999;28;20048;-73
2022/12/10 06:36:07;;;;;;;50.53;8.55;;;17.50;99.90;;;;;;5031389;28;20044;-75
2022/12/10 06:39:10;;;;;;;83.50;10.88;;;17.50;99.90;;;;;;5031194;28;20052;-74
2022/12/10 06:42:14;;;;;;;56.47;7.88;;;17.50;99.90;;;;;;5030779;28;20040;-73
2022/12/10 06:45:18;;;;;;;66.63;7.55;;;17.50;99.90;;;;;;5031178;28;20052;-73
2022/12/10 06:48:22;;;;;;;44.60;5.97;;;17.50;99.50;;;;;;5031038;28;20504;-71
2022/12/10 06:51:27;;;;;;;42.80;5.80;;;17.50;98.20;;;;;;5031397;28;20048;-72
2022/12/10 06:54:31;;;;;;;39.50;7.65;;;17.60;97.80;;;;;;5030910;28;20056;-70
2022/12/10 06:57:35;;;;;;;47.33;6.10;;;17.70;97.40;;;;;;5030750;28;20045;-73
2022/12/10 07:00:39;;;;;;;49.95;6.35;;;17.80;96.80;;;;;;5031321;28;20068;-73
2022/12/10 07:03:43;;;;;;;51.40;4.88;;;17.90;96.40;;;;;;5030924;28;20044;-74
2022/12/10 07:06:47;;;;;;;47.72;6.65;;;18.00;96.20;;;;;;5030833;28;20424;-73
2022/12/10 07:09:51;;;;;;;59.90;6.78;;;18.10;96.10;;;;;;5031121;28;20041;-76
2022/12/10 07:12:56;;;;;;;41.30;6.45;;;18.10;96.00;;;;;;5031193;28;20060;-75
2022/12/10 07:16:00;;;;;;;58.40;6.75;;;18.20;95.70;;;;;;5032455;28;20036;-72
2022/12/10 07:19:05;;;;;;;39.58;5.70;;;18.30;95.80;;;;;;5035321;28;20065;-74
2022/12/10 07:22:09;;;;;;;41.80;5.95;;;18.30;95.80;;;;;;5034831;28;20045;-75
2022/12/10 07:25:12;;;;;;;39.15;5.15;;;18.30;96.00;;;;;;5045388;28;20048;-75
2022/12/10 07:28:16;;;;;;;41.05;6.30;;;18.40;96.20;;;;;;5033864;28;20045;-73
2022/12/10 07:31:21;;;;;;;42.22;6.43;;;18.40;96.50;;;;;;5034380;28;20041;-74
2022/12/10 07:34:26;;;;;;;40.30;6.20;;;18.50;97.00;;;;;;5033903;28;20044;-72
2022/12/10 07:37:30;;;;;;;48.17;6.90;;;18.50;97.20;;;;;;5034298;28;20048;-73
2022/12/10 07:40:34;;;;;;;48.08;6.47;;;18.50;97.30;;;;;;5034428;28;20065;-75
2022/12/10 07:43:41;;;;;;;50.75;7.03;;;18.60;97.20;;;;;;5034556;28;20044;-73
2022/12/10 07:46:45;;;;;;;41.67;6.18;;;18.60;96.80;;;;;;5033716;28;20392;-74
2022/12/10 07:49:49;;;;;;;45.78;6.55;;;18.70;96.70;;;;;;5032955;28;20048;-76
2022/12/10 07:52:53;;;;;;;39.45;6.18;;;18.70;96.70;;;;;;5032584;28;20052;-74
2022/12/10 07:55:57;;;;;;;51.22;6.75;;;18.70;96.60;;;;;;5032474;28;20512;-75
2022/12/10 07:59:01;;;;;;;54.47;6.93;;;18.70;96.60;;;;;;5032321;28;20056;-74
2022/12/10 08:02:05;;;;;;;49.22;6.50;;;18.80;96.60;;;;;;5032427;28;20044;-75
2022/12/10 08:05:09;;;;;;;42.85;5.57;;;18.80;96.60;;;;;;5033263;28;20048;-74
2022/12/10 08:08:13;;;;;;;55.92;10.85;;;18.80;96.80;;;;;;5033691;28;20037;-76
2022/12/10 08:11:20;;;;;;;70.10;11.07;;;18.80;97.80;;;;;;5034275;28;20052;-77
2022/12/10 08:14:24;;;;;;;55.03;10.40;;;18.80;98.40;;;;;;5033971;28;20036;-74
2022/12/10 08:17:28;;;;;;;55.08;10.82;;;18.70;98.80;;;;;;5033976;28;20052;-76
2022/12/10 08:20:32;;;;;;;53.35;10.40;;;18.70;99.30;;;;;;5033880;28;20064;-76
2022/12/10 08:23:36;;;;;;;58.97;10.82;;;18.60;99.80;;;;;;5033857;28;20056;-76
2022/12/10 08:26:40;;;;;;;51.22;10.95;;;18.60;99.90;;;;;;5033229;28;20045;-75
2022/12/10 08:29:44;;;;;;;55.95;11.60;;;18.60;99.90;;;;;;5033883;28;20045;-77
2022/12/10 08:32:48;;;;;;;52.47;11.93;;;18.60;99.90;;;;;;5033785;28;20052;-74
2022/12/10 08:35:52;;;;;;;57.05;10.65;;;18.60;99.90;;;;;;5033611;28;20044;-74
2022/12/10 08:38:56;;;;;;;55.33;10.07;;;18.70;99.90;;;;;;5033355;28;20052;-75
2022/12/10 08:42:00;;;;;;;60.13;9.75;;;18.60;99.90;;;;;;5032455;28;20508;-74
2022/12/10 08:45:05;;;;;;;62.30;9.48;;;18.60;99.90;;;;;;5033307;28;20299;-78
2022/12/10 08:48:09;;;;;;;43.00;8.38;;;18.60;99.90;;;;;;5033170;28;20401;-73
2022/12/10 08:51:18;;;;;;;46.70;9.25;;;18.60;99.90;;;;;;5033148;28;20048;-73
2022/12/10 08:54:22;;;;;;;58.22;9.48;;;18.60;99.90;;;;;;5033039;28;20044;-74
2022/12/10 08:57:26;;;;;;;54.45;9.93;;;18.70;99.90;;;;;;5032902;28;20069;-73
2022/12/10 09:00:30;;;;;;;64.32;10.32;;;18.80;99.90;;;;;;5032722;28;20052;-74
2022/12/10 09:03:34;;;;;;;59.03;9.73;;;18.90;99.90;;;;;;5031671;28;20040;-73
2022/12/10 09:06:39;;;;;;;54.10;8.50;;;19.00;99.80;;;;;;5031209;28;20053;-74
2022/12/10 09:09:43;;;;;;;53.83;9.48;;;19.10;99.60;;;;;;5032015;28;20523;-78
2022/12/10 09:12:47;;;;;;;57.25;10.13;;;19.20;99.50;;;;;;5031652;28;20164;-75
2022/12/10 09:15:52;;;;;;;54.33;9.50;;;19.20;99.10;;;;;;5031559;28;20048;-75
2022/12/10 09:18:55;;;;;;;60.25;10.07;;;19.30;98.90;;;;;;5032396;28;20401;-76
2022/12/10 09:22:00;;;;;;;68.75;11.18;;;19.40;98.70;;;;;;5032660;28;20052;-73
2022/12/10 09:25:06;;;;;;;52.47;8.98;;;19.60;98.40;;;;;;5032644;28;20045;-74
2022/12/10 09:28:10;;;;;;;70.75;11.73;;;19.60;97.60;;;;;;5032491;28;20052;-73
2022/12/10 09:31:15;;;;;;;61.53;8.95;;;19.80;97.70;;;;;;5032250;28;20044;-75
2022/12/10 09:34:19;;;;;;;63.92;9.20;;;19.80;97.70;;;;;;5032470;28;20056;-76
2022/12/10 09:37:23;;;;;;;69.57;8.82;;;19.80;97.10;;;;;;5032090;28;20048;-74
2022/12/10 09:40:39;;;;;;;61.67;9.00;;;19.80;97.20;;;;;;5031848;28;20060;-75
2022/12/10 09:43:46;;;;;;;81.95;9.60;;;19.80;97.30;;;;;;5032328;28;20420;-77
2022/12/10 09:46:57;;;;;;;62.78;10.02;;;19.70;97.30;;;;;;5032313;28;20056;-73
2022/12/10 09:50:12;;;;;;;56.47;7.93;;;19.60;97.40;;;;;;5042913;28;20104;-75
2022/12/10 09:53:19;;;;;;;64.68;9.45;;;19.60;97.30;;;;;;5031660;28;20041;-71
2022/12/10 09:56:32;;;;;;;75.90;10.27;;;19.60;97.30;;;;;;5031913;28;20048;-77
2022/12/10 09:59:49;;;;;;;71.78;9.25;;;19.50;97.40;;;;;;5031699;28;20408;-74
2022/12/10 10:02:58;;;;;;;63.97;9.60;;;19.50;97.60;;;;;;5032272;28;20040;-76
2022/12/10 10:06:04;;;;;;;74.45;9.73;;;19.50;97.60;;;;;;5031661;28;20056;-72
2022/12/10 10:09:13;;;;;;;52.05;9.65;;;19.50;97.60;;;;;;5042586;28;20048;-71
2022/12/10 10:12:17;;;;;;;53.80;8.40;;;19.40;97.60;;;;;;5031774;28;20049;-71
2022/12/10 10:15:32;;;;;;;46.05;6.97;;;19.40;97.80;;;;;;5031613;28;20507;-74
2022/12/10 10:18:40;;;;;;;49.85;6.95;;;19.40;98.10;;;;;;5031561;28;20052;-73
2022/12/10 10:21:48;;;;;;;53.92;7.03;;;19.40;97.90;;;;;;5031319;28;20060;-72
2022/12/10 10:24:53;;;;;;;55.58;6.70;;;19.50;98.40;;;;;;5031609;28;20040;-71
2022/12/10 10:27:58;;;;;;;45.05;6.90;;;19.50;98.80;;;;;;5031205;28;20500;-73
2022/12/10 10:31:02;;;;;;;34.08;5.05;;;19.50;98.80;;;;;;5031075;28;20040;-71
2022/12/10 10:34:21;;;;;;;53.63;6.95;;;19.50;98.80;;;;;;5031284;28;20060;-72
2022/12/10 10:37:29;;;;;;;52.35;7.28;;;19.50;98.90;;;;;;5031000;28;20044;-71
2022/12/10 10:40:44;;;;;;;42.83;7.10;;;19.50;99.30;;;;;;5030849;28;20076;-71
2022/12/10 10:43:56;;;;;;;49.95;7.03;;;19.50;99.80;;;;;;5031269;28;20052;-70
2022/12/10 10:47:00;;;;;;;60.17;8.30;;;19.40;99.90;;;;;;5030840;28;20053;-73
2022/12/10 10:50:05;;;;;;;46.38;7.10;;;19.50;99.90;;;;;;5030651;28;20468;-73
2022/12/10 10:53:31;;;;;;;46.13;6.35;;;19.50;99.90;;;;;;5030558;28;20052;-74
2022/12/10 10:56:43;;;;;;;45.42;6.65;;;19.50;99.90;;;;;;5030596;28;20064;-71
2022/12/10 10:59:48;;;;;;;36.85;6.32;;;19.50;99.50;;;;;;5030636;28;20051;-72
2022/12/10 11:02:52;;;;;;;53.70;6.93;;;19.60;99.60;;;;;;5030889;28;20049;-72
2022/12/10 11:05:58;;;;;;;50.20;6.50;;;19.60;98.90;;;;;;5030904;28;20064;-73
2022/12/10 11:09:05;;;;;;;49.42;6.25;;;19.50;98.60;;;;;;5030556;28;20044;-72
2022/12/10 11:12:37;;;;;;;53.08;7.35;;;19.50;98.90;;;;;;5031052;28;20396;-71
2022/12/10 11:15:41;;;;;;;66.38;7.97;;;19.50;99.10;;;;;;5031189;28;20058;-71
2022/12/10 11:19:01;;;;;;;59.95;8.02;;;19.50;99.50;;;;;;5030978;28;20049;-73
2022/12/10 11:22:23;;;;;;;43.92;7.07;;;19.50;99.90;;;;;;5030762;28;20048;-73
2022/12/10 11:25:47;;;;;;;;;;;19.40;99.90;;;;;;5031178;28;20507;-75
2022/12/10 11:28:58;;;;;;;66.35;9.13;;;19.40;99.90;;;;;;5030435;28;19910;-72
2022/12/10 11:32:11;;;;;;;64.32;9.45;;;19.40;99.90;;;;;;5030668;28;20041;-70
2022/12/10 11:35:15;;;;;;;73.43;8.30;;;19.30;99.90;;;;;;5030932;28;20500;-73
2022/12/10 11:38:59;;;;;;;56.83;7.95;;;19.30;99.90;;;;;;5029810;28;20048;-77
2022/12/10 11:42:17;;;;;;;50.33;7.18;;;19.30;99.90;;;;;;5028117;28;20053;-73
2022/12/10 11:45:48;;;;;;;58.13;7.72;;;19.20;99.90;;;;;;5041074;28;20496;-73
2022/12/10 11:49:08;;;;;;;55.65;9.20;;;19.20;99.90;;;;;;5041150;28;20052;-73
2022/12/10 11:52:37;;;;;;;52.90;8.80;;;19.10;99.90;;;;;;5030268;28;20044;-70
2022/12/10 11:56:10;;;;;;;52.13;8.55;;;19.00;99.90;;;;;;5030464;28;20056;-72
2022/12/10 11:59:27;;;;;;;71.32;9.73;;;19.00;99.90;;;;;;5030332;28;20045;-72
2022/12/10 12:02:43;;;;;;;68.38;8.82;;;19.00;99.90;;;;;;5031071;28;20056;-73
2022/12/10 12:06:07;;;;;;;55.00;9.25;;;18.90;99.90;;;;;;5034240;28;20057;-73
2022/12/10 12:09:45;;;;;;;63.53;10.55;;;18.90;99.90;;;;;;5033968;28;20056;-73
2022/12/10 12:12:51;;;;;;;54.92;10.40;;;18.90;99.90;;;;;;5034173;28;20052;-73
2022/12/10 12:15:59;;;;;;;65.68;10.50;;;18.90;99.90;;;;;;5034218;28;20132;-73
2022/12/10 12:19:48;;;;;;;67.22;9.75;;;18.80;99.90;;;;;;5033959;28;20060;-73
2022/12/10 12:23:21;;;;;;;66.68;9.48;;;18.80;99.90;;;;;;5000388;28;20049;-73
2022/12/10 12:26:37;;;;;;;53.67;10.98;;;18.70;99.90;;;;;;5012681;28;20056;-73
2022/12/10 12:29:48;;;;;;;51.30;9.88;;;18.70;99.90;;;;;;5034003;28;20037;-73
2022/12/10 12:33:05;;;;;;;60.13;10.97;;;18.70;99.90;;;;;;5033570;28;20052;-73
2022/12/10 12:36:12;;;;;;;71.95;11.35;;;18.60;99.90;;;;;;5033734;28;20044;-74
2022/12/10 12:39:44;;;;;;;56.30;9.10;;;18.60;99.90;;;;;;5044255;28;20037;-73
2022/12/10 12:43:03;;;;;;;51.78;8.02;;;18.50;99.90;;;;;;5033441;28;20052;-74
2022/12/10 12:46:23;;;;;;;52.88;7.45;;;18.40;99.90;;;;;;5034379;28;20520;-76
2022/12/10 12:49:32;;;;;;;55.78;7.78;;;18.30;99.90;;;;;;5033504;28;20396;-72
2022/12/10 12:52:51;;;;;;;50.88;8.63;;;18.20;99.90;;;;;;5033427;28;20045;-73
2022/12/10 12:56:34;;;;;;;63.63;8.63;;;18.10;99.90;;;;;;5033222;28;20048;-73
2022/12/10 13:00:03;;;;;;;55.47;9.38;;;18.10;99.90;;;;;;5033154;28;20049;-73
2022/12/10 13:03:16;;;;;;;46.70;7.25;;;18.10;99.90;;;;;;5032972;28;20060;-73
2022/12/10 13:06:24;;;;;;;45.63;7.90;;;18.10;99.90;;;;;;5033222;28;20504;-71
2022/12/10 13:09:30;;;;;;;57.83;7.63;;;18.00;99.90;;;;;;5033428;28;20048;-71
2022/12/10 13:13:06;;;;;;;49.30;8.23;;;18.00;99.90;;;;;;5033134;28;20053;-73
2022/12/10 13:16:48;;;;;;;41.83;7.53;;;17.90;99.90;;;;;;5032928;28;20064;-72
2022/12/10 13:19:51;;;;;;;;;;;17.90;99.90;;;;;;5033041;28;20405;-73
2022/12/10 13:22:58;;;;;;;39.38;6.43;;;17.90;99.90;;;;;;5032625;28;19913;-72
2022/12/10 13:26:03;;;;;;;34.30;6.07;;;17.80;99.90;;;;;;5031889;28;20527;-74
2022/12/10 13:29:26;;;;;;;38.17;5.28;;;17.80;99.90;;;;;;5033017;28;20389;-73
2022/12/10 13:32:30;;;;;;;37.05;5.68;;;17.80;99.90;;;;;;5032582;28;20056;-73
2022/12/10 13:35:50;;;;;;;35.88;4.88;;;17.70;99.90;;;;;;5032288;28;20040;-72
2022/12/10 13:39:02;;;;;;;34.80;5.90;;;17.60;99.90;;;;;;5032734;28;20072;-73
2022/12/10 13:45:35;;;;;;;31.88;4.47;;;17.60;99.90;;;;;;5032396;28;20052;-73
2022/12/10 13:48:40;;;;;;;33.20;5.50;;;17.60;99.90;;;;;;5032075;28;20040;-72
2022/12/10 13:51:58;;;;;;;27.92;4.15;;;17.60;99.90;;;;;;5032296;28;20041;-71
2022/12/10 13:55:37;;;;;;;41.00;4.53;;;17.50;99.90;;;;;;5031756;28;20076;-71
2022/12/10 13:59:05;;;;;;;34.28;5.20;;;17.50;99.90;;;;;;5032056;28;20059;-72
2022/12/10 14:02:31;;;;;;;29.58;4.35;;;17.50;99.90;;;;;;5036298;28;20056;-72
2022/12/10 14:06:15;;;;;;;44.47;5.25;;;17.50;99.90;;;;;;5031717;28;20497;-73
2022/12/10 14:09:25;;;;;;;34.60;4.75;;;17.50;99.90;;;;;;5032160;28;20068;-72
2022/12/10 14:12:42;;;;;;;30.00;4.60;;;17.50;99.90;;;;;;5032211;28;20105;-75
2022/12/10 14:16:00;;;;;;;30.35;5.18;;;17.50;99.90;;;;;;5031860;28;20072;-75
2022/12/10 14:19:08;;;;;;;39.10;4.75;;;17.50;99.90;;;;;;5031588;28;20048;-67
2022/12/10 14:22:30;;;;;;;30.40;4.97;;;17.40;99.90;;;;;;5030507;28;20060;-67
2022/12/10 14:25:41;;;;;;;28.90;4.00;;;17.50;99.90;;;;;;5029770;28;20117;-68
2022/12/10 14:29:18;;;;;;;26.60;4.38;;;17.40;99.90;;;;;;5030616;28;20044;-68
2022/12/10 14:32:37;;;;;;;30.00;5.25;;;17.40;99.90;;;;;;5030382;28;20060;-67
2022/12/10 14:35:41;;;;;;;36.65;4.40;;;17.40;99.90;;;;;;5030499;28;20412;-67
2022/12/10 14:38:47;;;;;;;25.08;4.07;;;17.30;99.90;;;;;;5030968;28;20037;-67
2022/12/10 14:41:54;;;;;;;34.03;4.82;;;17.30;99.90;;;;;;5030936;28;20065;-67
2022/12/10 14:45:06;;;;;;;33.67;4.70;;;17.30;99.90;;;;;;5031737;28;20041;-68
2022/12/10 14:48:16;;;;;;;39.83;4.43;;;17.30;99.90;;;;;;5031290;28;20072;-67
2022/12/10 14:51:25;;;;;;;41.33;5.80;;;17.30;99.90;;;;;;5031337;28;20064;-67
2022/12/10 14:54:32;;;;;;;35.70;5.60;;;17.30;99.90;;;;;;5031250;28;20060;-67
2022/12/10 14:57:44;;;;;;;41.67;6.07;;;17.30;99.90;;;;;;5031314;28;20048;-67
2022/12/10 15:00:49;;;;;;;33.13;5.13;;;17.30;99.90;;;;;;5030874;28;20053;-67
2022/12/10 15:03:53;;;;;;;40.15;4.97;;;17.30;99.90;;;;;;5030876;28;20045;-67
2022/12/10 15:07:01;;;;;;;34.80;5.85;;;17.30;99.90;;;;;;5030906;28;20044;-67
2022/12/10 15:10:14;;;;;;;42.45;6.00;;;17.30;99.90;;;;;;5030848;28;20040;-67
2022/12/10 15:13:23;;;;;;;39.17;5.88;;;17.30;99.90;;;;;;5030998;28;20068;-67
2022/12/10 15:16:31;;;;;;;28.98;4.32;;;17.40;99.90;;;;;;5030720;28;20049;-67
2022/12/10 15:19:36;;;;;;;31.98;4.60;;;17.40;99.90;;;;;;5030879;28;20049;-68
2022/12/10 15:22:39;;;;;;;19.92;3.25;;;17.30;99.90;;;;;;5031145;28;20064;-67
2022/12/10 15:25:57;;;;;;;42.28;4.20;;;17.30;99.90;;;;;;5031170;28;20048;-66
2022/12/10 15:29:25;;;;;;;31.10;4.22;;;17.30;99.90;;;;;;5030933;28;20068;-67
2022/12/10 15:32:30;;;;;;;43.80;6.68;;;17.30;99.90;;;;;;5030729;28;20048;-67
2022/12/10 15:35:36;;;;;;;33.78;5.55;;;17.30;99.90;;;;;;5031164;28;20044;-67
2022/12/10 15:38:40;;;;;;;43.85;7.20;;;17.30;99.90;;;;;;5034489;28;20064;-67
2022/12/10 15:41:51;;;;;;;32.70;5.70;;;17.30;99.90;;;;;;5033454;28;20048;-67
2022/12/10 15:45:01;;;;;;;34.78;6.72;;;17.30;99.90;;;;;;5034178;28;20045;-67
2022/12/10 15:48:09;;;;;;;28.33;4.20;;;17.30;99.90;;;;;;5034546;28;20047;-67
2022/12/10 15:51:14;;;;;;;17.83;3.28;;;17.20;99.90;;;;;;5034323;28;20048;-66
2022/12/10 15:54:21;;;;;;;23.17;3.42;;;17.20;99.90;;;;;;5033909;28;20052;-66
2022/12/10 15:57:28;;;;;;;20.90;3.38;;;17.10;99.90;;;;;;5033852;28;20389;-66
2022/12/10 16:00:32;;;;;;;23.65;5.75;;;17.10;99.90;;;;;;5033875;28;20049;-66
2022/12/10 16:03:37;;;;;;;35.67;8.07;;;17.10;99.90;;;;;;5033257;28;20044;-66
2022/12/10 16:06:42;;;;;;;31.90;6.90;;;17.10;99.90;;;;;;5034171;28;20397;-67
2022/12/10 16:09:46;;;;;;;44.85;7.20;;;17.10;99.90;;;;;;5034663;28;20044;-66
2022/12/10 16:13:05;;;;;;;40.33;7.20;;;17.00;99.90;;;;;;5034076;28;20045;-67
2022/12/10 16:16:12;;;;;;;33.70;6.70;;;17.00;99.90;;;;;;5034053;28;20048;-67
2022/12/10 16:19:16;;;;;;;45.53;8.90;;;17.00;99.90;;;;;;5034252;28;20372;-67
2022/12/10 16:22:20;;;;;;;52.42;8.98;;;17.00;99.90;;;;;;5033276;28;20057;-66
2022/12/10 16:25:27;;;;;;;50.20;14.70;;;17.00;99.90;;;;;;5033782;28;20222;-66
2022/12/10 16:28:31;;;;;;;46.83;9.13;;;17.00;99.90;;;;;;5034101;28;20381;-66